EIKN/NOC METAR and TAF weather

Enter ICAO airport designator
Station Type Date Time Source
EIKN METAR 2023/02/06 18:30 UTC NOAA

EIKN 061830Z 18011KT 9999 SCT008 BKN012 BKN048 07/06 Q1032 NOSIG


Station Type Date Time Source
EIKN Decoded METAR 2023/02/06 18:30 UTC NOAA

Connaught, Ireland (EIKN) 53-54-37N 008-49-05W
Feb 06, 2023 - 01:30 PM EST / 2023.02.06 1830 UTC
Wind: from the S (180 degrees) at 13 MPH (11 KT):0
Visibility: greater than 7 mile(s):0
Sky conditions: mostly cloudy
Temperature: 44 F (7 C)
Dew Point: 42 F (6 C)
Relative Humidity: 93%
Pressure (altimeter): 30.47 in. Hg (1032 hPa)
ob: EIKN 061830Z 18011KT 9999 SCT008 BKN012 BKN048 07/06 Q1032 NOSIG
cycle: 18

Station Type Date Time Source
EIKN TAF 2023/02/06 18:57 UTC NOAA

TAF
AMD TAF
AMD EIKN 061854Z 0618/0718 CNL

Example: see airport list